Scf Baltica — A8IA5 — position and weather

sailwx.info

Track history (hours):
 
Tides and Currents Weather Stations Pressure Air Temp Water Temp Dewpoint Dewpoint Depression Visibility Wind Speed Wind Dir Waves Ship Positions

Scf Baltica

Last reported at 2015-Mar-05 21:29 UTC. Time now 2015-Mar-05 22:36 UTC.
Position N 57°36' E 010°53'.

Length 250 m; draft 8.8 m.

Type: Ship. MMSI: 636012813.

Date/timePositionNaut miles runAvg speedWind from/ knotsBaromVisibWave heightAir tempDewpointWater temp
2015-Mar-05 21:29N 57°36' E 010°53'0 0.0
2015-Mar-05 20:32N 57°36' E 010°53'0 0.0
2015-Mar-05 19:32N 57°36' E 010°53'0 0.1
2015-Mar-05 18:26N 57°35' E 010°53'0 0.0
2015-Mar-05 16:29N 57°35' E 010°53'0 0.0
2015-Mar-05 15:20N 57°35' E 010°53'0 0.0
2015-Mar-05 14:32N 57°35' E 010°53'0 0.0
2015-Mar-05 13:32N 57°35' E 010°53'0 0.0
2015-Mar-05 12:32N 57°35' E 010°53'0 0.0
2015-Mar-05 11:32N 57°35' E 010°53'0 0.0
2015-Mar-05 10:29N 57°35' E 010°53'0 0.0
2015-Mar-05 09:29N 57°35' E 010°53'0 0.0
2015-Mar-05 08:14N 57°35' E 010°53'0 0.0
2015-Mar-05 07:17N 57°35' E 010°53'0 0.0
2015-Mar-05 05:20N 57°35' E 010°53'0 0.0
2015-Mar-05 04:32N 57°35' E 010°53'0 0.0
2015-Mar-05 03:20N 57°35' E 010°53'0 0.0
2015-Mar-05 01:29N 57°35' E 010°53'0 0.0
2015-Mar-05 00:23N 57°35' E 010°53'0 0.0
2015-Mar-04 23:32N 57°35' E 010°53'0 0.0
2015-Mar-04 22:20N 57°35' E 010°53'0 0.0
2015-Mar-04 21:32N 57°35' E 010°53'0 0.0
2015-Mar-04 20:32N 57°35' E 010°53'0 0.0
2015-Mar-04 19:32N 57°35' E 010°53'0 0.0
2015-Mar-04 18:29N 57°35' E 010°53'0 0.0
2015-Mar-04 17:26N 57°35' E 010°53'0 0.0
2015-Mar-04 16:26N 57°35' E 010°53'0 0.0
2015-Mar-04 14:29N 57°35' E 010°53'0 0.1
2015-Mar-04 13:23N 57°35' E 010°53'0 0.2
2015-Mar-04 12:23N 57°36' E 010°53'0 0.0
2015-Mar-04 11:26N 57°36' E 010°53'0 0.0
2015-Mar-04 10:29N 57°36' E 010°52'0 0.0
2015-Mar-04 09:32N 57°36' E 010°52'0 0.0
2015-Mar-04 08:29N 57°36' E 010°53'0 0.0
2015-Mar-04 07:32N 57°36' E 010°53'0 0.0
2015-Mar-04 06:32N 57°36' E 010°53'0 0.0
2015-Mar-04 05:32N 57°36' E 010°53'0 0.0
2015-Mar-04 04:32N 57°36' E 010°53'0 0.0
2015-Mar-04 03:32N 57°36' E 010°53'0 0.0
2015-Mar-04 02:20N 57°36' E 010°53'0 0.0
2015-Mar-04 01:20N 57°36' E 010°53'0 0.0
2015-Mar-04 00:17N 57°36' E 010°53'0 0.0
2015-Mar-03 23:26N 57°36' E 010°53'0 0.0
2015-Mar-03 22:32N 57°36' E 010°53'0 0.0
2015-Mar-03 21:23N 57°36' E 010°53'0 0.0
2015-Mar-03 20:26N 57°36' E 010°53'0 0.0
2015-Mar-03 19:32N 57°36' E 010°53'0 0.0
2015-Mar-03 18:29N 57°36' E 010°53'0 0.1
2015-Mar-03 17:26N 57°36' E 010°53'0 0.1
2015-Mar-03 16:29N 57°36' E 010°53'0 0.0
2015-Mar-03 15:32N 57°36' E 010°53'0 0.0
2015-Mar-03 14:32N 57°35' E 010°53'0 0.0
2015-Mar-03 13:29N 57°35' E 010°53'0 0.0
2015-Mar-03 12:23N 57°36' E 010°53'0 0.0
2015-Mar-03 11:26N 57°35' E 010°53'0 0.0
2015-Mar-03 10:26N 57°36' E 010°53'0 0.1
2015-Mar-03 09:33N 57°36' E 010°53'4 4.1
2015-Mar-03 08:33N 57°39' E 010°56'7 7.5
2015-Mar-03 07:33N 57°47' E 010°59'5 5.5
2015-Mar-03 06:33N 57°52' E 011°01'3 3.3
2015-Mar-03 05:33N 57°55' E 011°02'4 4.1
2015-Mar-03 04:33N 57°59' E 011°03'4 4.0
2015-Mar-03 03:33N 58°03' E 011°05'4 4.4
2015-Mar-03 02:33N 58°08' E 011°07'4 4.1
2015-Mar-03 01:33N 58°12' E 011°08'3 3.4
2015-Mar-03 00:33N 58°14' E 011°11'8 8.3
2015-Mar-02 23:33N 58°20' E 011°23'1 1.2
2015-Mar-02 22:31N 58°21' E 011°24'0 0.0
2015-Mar-02 21:28N 58°21' E 011°24'0 0.0
2015-Mar-02 20:31N 58°21' E 011°24'0 0.0
2015-Mar-02 19:28N 58°21' E 011°24'0 0.0
2015-Mar-02 18:31N 58°21' E 011°24'0 0.0
2015-Mar-02 17:31N 58°21' E 011°24'0 0.0
2015-Mar-02 16:31N 58°21' E 011°24'0 0.0
2015-Mar-02 15:31N 58°21' E 011°24'0 0.0
2015-Mar-02 14:31N 58°21' E 011°24'0 0.0
2015-Mar-02 13:13N 58°21' E 011°24'0 0.0
2015-Mar-02 12:31N 58°21' E 011°24'0 0.0
2015-Mar-02 11:31N 58°21' E 011°24'0 0.0
2015-Mar-02 10:31N 58°21' E 011°24'0 0.0
2015-Mar-02 09:31N 58°21' E 011°24'0 0.0
2015-Mar-02 08:31N 58°21' E 011°24'0 0.0
2015-Mar-02 07:31N 58°21' E 011°24'0 0.0
2015-Mar-02 06:31N 58°21' E 011°24'0 0.0
2015-Mar-02 05:25N 58°21' E 011°24'0 0.0
2015-Mar-02 04:31N 58°21' E 011°24'0 0.0
2015-Mar-02 03:31N 58°21' E 011°24'0 0.0
2015-Mar-02 02:25N 58°21' E 011°24'0 0.0
2015-Mar-02 01:19N 58°21' E 011°24'0 0.0
2015-Mar-02 00:31N 58°21' E 011°24'1 0.9
2015-Mar-01 23:34N 58°20' E 011°23'7 7.3
2015-Mar-01 22:33N 58°16' E 011°13'9 9.3
2015-Mar-01 21:33N 58°06' E 011°10'1413.8
2015-Mar-01 20:33N 57°53' E 011°17'1312.6
2015-Mar-01 19:33N 57°41' E 011°23'1212.2
2015-Mar-01 18:33N 57°29' E 011°29'8 7.9
2015-Mar-01 17:33N 57°21' E 011°33'1212.2
2015-Mar-01 16:33N 57°10' E 011°39'1212.2
2015-Mar-01 15:33N 56°58' E 011°45'1312.6
2015-Mar-01 14:33N 56°46' E 011°53'13211.8
2015-Mar-01 03:23N 54°39' E 010°52'1012.5
2015-Mar-01 02:34N 54°36' E 011°10'1212.5
2015-Mar-01 01:34N 54°31' E 011°29'1212.2
2015-Mar-01 00:34N 54°27' E 011°49'1212.0
2015-Feb-28 23:34N 54°27' E 012°09'1110.9
2015-Feb-28 22:34N 54°36' E 012°17'9 8.9
2015-Feb-28 21:33N 54°41' E 012°30'9 8.8
2015-Feb-28 20:33N 54°46' E 012°43'1111.1
2015-Feb-28 19:34N 54°50' E 013°00'1212.1
2015-Feb-28 18:34N 54°55' E 013°20'1212.0
2015-Feb-28 17:33N 54°59' E 013°40'1211.9
2015-Feb-28 16:34N 55°03' E 013°59'1211.9
2015-Feb-28 15:34N 55°11' E 014°15'1212.2
2015-Feb-28 14:33N 55°21' E 014°28'1212.0
2015-Feb-28 13:33N 55°29' E 014°42'1212.4
2015-Feb-28 12:33N 55°35' E 015°02'36211.7
2015-Feb-27 05:31N 59°38' E 023°23'1212.4
2015-Feb-27 04:33N 59°41' E 023°46'1712.5
2015-Feb-27 03:09N 59°46' E 024°19'712.4
2015-Feb-27 02:33N 59°48' E 024°34'6312.5
2015-Feb-26 21:33N 60°02' E 026°35'1512.4
2015-Feb-26 20:23N 59°60' E 027°04'10 0.2
2015-Feb-25 00:24N 60°04' E 027°21'8 9.6
2015-Feb-24 23:32N 60°04' E 027°05'1 0.8
2015-Feb-24 22:17N 60°04' E 027°03'0 0.0
2015-Feb-24 21:32N 60°04' E 027°03'0 0.0
2015-Feb-24 20:20N 60°04' E 027°03'0 0.0
2015-Feb-24 17:26N 60°04' E 027°03'0 0.0
2015-Feb-24 14:32N 60°04' E 027°03'0 0.0
2015-Feb-24 13:32N 60°04' E 027°03'0 0.0
2015-Feb-24 12:08N 60°04' E 027°03'0 0.0
2015-Feb-24 11:26N 60°04' E 027°03'0 0.0
2015-Feb-24 10:20N 60°04' E 027°03'0 0.0
2015-Feb-24 09:14N 60°04' E 027°03'0 0.0
2015-Feb-24 08:17N 60°04' E 027°03'0 0.0
2015-Feb-24 07:32N 60°04' E 027°03'0 0.0
2015-Feb-24 06:26N 60°04' E 027°03'0 0.0
2015-Feb-24 05:20N 60°04' E 027°03'0 0.0
2015-Feb-24 04:23N 60°04' E 027°03'0 0.0
2015-Feb-24 03:32N 60°04' E 027°03'0 0.0
2015-Feb-24 02:26N 60°04' E 027°03'0 0.0
2015-Feb-24 01:05N 60°04' E 027°03'0 0.1
2015-Feb-24 00:26N 60°04' E 027°03'0 0.0
2015-Feb-23 23:14N 60°04' E 027°03'0 0.0
2015-Feb-23 22:26N 60°04' E 027°03'0 0.0
2015-Feb-23 21:32N 60°04' E 027°03'  
Track history (hours):
 
Tides and Currents Weather Stations Pressure Air Temp Water Temp Dewpoint Dewpoint Depression Visibility Wind Speed Wind Dir Waves Ship Positions

Scf Baltica

Last reported at 2015-Mar-05 21:29 UTC. Time now 2015-Mar-05 22:36 UTC.
Position N 57°36' E 010°53'.

Length 250 m; draft 8.8 m.

Type: Ship. MMSI: 636012813.

Date/timePositionNaut miles runAvg speedWind from/ knotsBaromVisibWave heightAir tempDewpointWater temp
2015-Mar-05 21:29N 57°36' E 010°53'0 0.0
2015-Mar-05 20:32N 57°36' E 010°53'0 0.0
2015-Mar-05 19:32N 57°36' E 010°53'0 0.1
2015-Mar-05 18:26N 57°35' E 010°53'0 0.0
2015-Mar-05 16:29N 57°35' E 010°53'0 0.0
2015-Mar-05 15:20N 57°35' E 010°53'0 0.0
2015-Mar-05 14:32N 57°35' E 010°53'0 0.0
2015-Mar-05 13:32N 57°35' E 010°53'0 0.0
2015-Mar-05 12:32N 57°35' E 010°53'0 0.0
2015-Mar-05 11:32N 57°35' E 010°53'0 0.0
2015-Mar-05 10:29N 57°35' E 010°53'0 0.0
2015-Mar-05 09:29N 57°35' E 010°53'0 0.0
2015-Mar-05 08:14N 57°35' E 010°53'0 0.0
2015-Mar-05 07:17N 57°35' E 010°53'0 0.0
2015-Mar-05 05:20N 57°35' E 010°53'0 0.0
2015-Mar-05 04:32N 57°35' E 010°53'0 0.0
2015-Mar-05 03:20N 57°35' E 010°53'0 0.0
2015-Mar-05 01:29N 57°35' E 010°53'0 0.0
2015-Mar-05 00:23N 57°35' E 010°53'0 0.0
2015-Mar-04 23:32N 57°35' E 010°53'0 0.0
2015-Mar-04 22:20N 57°35' E 010°53'0 0.0
2015-Mar-04 21:32N 57°35' E 010°53'0 0.0
2015-Mar-04 20:32N 57°35' E 010°53'0 0.0
2015-Mar-04 19:32N 57°35' E 010°53'0 0.0
2015-Mar-04 18:29N 57°35' E 010°53'0 0.0
2015-Mar-04 17:26N 57°35' E 010°53'0 0.0
2015-Mar-04 16:26N 57°35' E 010°53'0 0.0
2015-Mar-04 14:29N 57°35' E 010°53'0 0.1
2015-Mar-04 13:23N 57°35' E 010°53'0 0.2
2015-Mar-04 12:23N 57°36' E 010°53'0 0.0
2015-Mar-04 11:26N 57°36' E 010°53'0 0.0
2015-Mar-04 10:29N 57°36' E 010°52'0 0.0
2015-Mar-04 09:32N 57°36' E 010°52'0 0.0
2015-Mar-04 08:29N 57°36' E 010°53'0 0.0
2015-Mar-04 07:32N 57°36' E 010°53'0 0.0
2015-Mar-04 06:32N 57°36' E 010°53'0 0.0
2015-Mar-04 05:32N 57°36' E 010°53'0 0.0
2015-Mar-04 04:32N 57°36' E 010°53'0 0.0
2015-Mar-04 03:32N 57°36' E 010°53'0 0.0
2015-Mar-04 02:20N 57°36' E 010°53'0 0.0
2015-Mar-04 01:20N 57°36' E 010°53'0 0.0
2015-Mar-04 00:17N 57°36' E 010°53'0 0.0
2015-Mar-03 23:26N 57°36' E 010°53'0 0.0
2015-Mar-03 22:32N 57°36' E 010°53'0 0.0
2015-Mar-03 21:23N 57°36' E 010°53'0 0.0
2015-Mar-03 20:26N 57°36' E 010°53'0 0.0
2015-Mar-03 19:32N 57°36' E 010°53'0 0.0
2015-Mar-03 18:29N 57°36' E 010°53'0 0.1
2015-Mar-03 17:26N 57°36' E 010°53'0 0.1
2015-Mar-03 16:29N 57°36' E 010°53'0 0.0
2015-Mar-03 15:32N 57°36' E 010°53'0 0.0
2015-Mar-03 14:32N 57°35' E 010°53'0 0.0
2015-Mar-03 13:29N 57°35' E 010°53'0 0.0
2015-Mar-03 12:23N 57°36' E 010°53'0 0.0
2015-Mar-03 11:26N 57°35' E 010°53'0 0.0
2015-Mar-03 10:26N 57°36' E 010°53'0 0.1
2015-Mar-03 09:33N 57°36' E 010°53'4 4.1
2015-Mar-03 08:33N 57°39' E 010°56'7 7.5
2015-Mar-03 07:33N 57°47' E 010°59'5 5.5
2015-Mar-03 06:33N 57°52' E 011°01'3 3.3
2015-Mar-03 05:33N 57°55' E 011°02'4 4.1
2015-Mar-03 04:33N 57°59' E 011°03'4 4.0
2015-Mar-03 03:33N 58°03' E 011°05'4 4.4
2015-Mar-03 02:33N 58°08' E 011°07'4 4.1
2015-Mar-03 01:33N 58°12' E 011°08'3 3.4
2015-Mar-03 00:33N 58°14' E 011°11'8 8.3
2015-Mar-02 23:33N 58°20' E 011°23'1 1.2
2015-Mar-02 22:31N 58°21' E 011°24'0 0.0
2015-Mar-02 21:28N 58°21' E 011°24'0 0.0
2015-Mar-02 20:31N 58°21' E 011°24'0 0.0
2015-Mar-02 19:28N 58°21' E 011°24'0 0.0
2015-Mar-02 18:31N 58°21' E 011°24'0 0.0
2015-Mar-02 17:31N 58°21' E 011°24'0 0.0
2015-Mar-02 16:31N 58°21' E 011°24'0 0.0
2015-Mar-02 15:31N 58°21' E 011°24'0 0.0
2015-Mar-02 14:31N 58°21' E 011°24'0 0.0
2015-Mar-02 13:13N 58°21' E 011°24'0 0.0
2015-Mar-02 12:31N 58°21' E 011°24'0 0.0
2015-Mar-02 11:31N 58°21' E 011°24'0 0.0
2015-Mar-02 10:31N 58°21' E 011°24'0 0.0
2015-Mar-02 09:31N 58°21' E 011°24'0 0.0
2015-Mar-02 08:31N 58°21' E 011°24'0 0.0
2015-Mar-02 07:31N 58°21' E 011°24'0 0.0
2015-Mar-02 06:31N 58°21' E 011°24'0 0.0
2015-Mar-02 05:25N 58°21' E 011°24'0 0.0
2015-Mar-02 04:31N 58°21' E 011°24'0 0.0
2015-Mar-02 03:31N 58°21' E 011°24'0 0.0
2015-Mar-02 02:25N 58°21' E 011°24'0 0.0
2015-Mar-02 01:19N 58°21' E 011°24'0 0.0
2015-Mar-02 00:31N 58°21' E 011°24'1 0.9
2015-Mar-01 23:34N 58°20' E 011°23'7 7.3
2015-Mar-01 22:33N 58°16' E 011°13'9 9.3
2015-Mar-01 21:33N 58°06' E 011°10'1413.8
2015-Mar-01 20:33N 57°53' E 011°17'1312.6
2015-Mar-01 19:33N 57°41' E 011°23'1212.2
2015-Mar-01 18:33N 57°29' E 011°29'8 7.9
2015-Mar-01 17:33N 57°21' E 011°33'1212.2
2015-Mar-01 16:33N 57°10' E 011°39'1212.2
2015-Mar-01 15:33N 56°58' E 011°45'1312.6
2015-Mar-01 14:33N 56°46' E 011°53'13211.8
2015-Mar-01 03:23N 54°39' E 010°52'1012.5
2015-Mar-01 02:34N 54°36' E 011°10'1212.5
2015-Mar-01 01:34N 54°31' E 011°29'1212.2
2015-Mar-01 00:34N 54°27' E 011°49'1212.0
2015-Feb-28 23:34N 54°27' E 012°09'1110.9
2015-Feb-28 22:34N 54°36' E 012°17'9 8.9
2015-Feb-28 21:33N 54°41' E 012°30'9 8.8
2015-Feb-28 20:33N 54°46' E 012°43'1111.1
2015-Feb-28 19:34N 54°50' E 013°00'1212.1
2015-Feb-28 18:34N 54°55' E 013°20'1212.0
2015-Feb-28 17:33N 54°59' E 013°40'1211.9
2015-Feb-28 16:34N 55°03' E 013°59'1211.9
2015-Feb-28 15:34N 55°11' E 014°15'1212.2
2015-Feb-28 14:33N 55°21' E 014°28'1212.0
2015-Feb-28 13:33N 55°29' E 014°42'1212.4
2015-Feb-28 12:33N 55°35' E 015°02'36211.7
2015-Feb-27 05:31N 59°38' E 023°23'1212.4
2015-Feb-27 04:33N 59°41' E 023°46'1712.5
2015-Feb-27 03:09N 59°46' E 024°19'712.4
2015-Feb-27 02:33N 59°48' E 024°34'6312.5
2015-Feb-26 21:33N 60°02' E 026°35'1512.4
2015-Feb-26 20:23N 59°60' E 027°04'10 0.2
2015-Feb-25 00:24N 60°04' E 027°21'8 9.6
2015-Feb-24 23:32N 60°04' E 027°05'1 0.8
2015-Feb-24 22:17N 60°04' E 027°03'0 0.0
2015-Feb-24 21:32N 60°04' E 027°03'0 0.0
2015-Feb-24 20:20N 60°04' E 027°03'0 0.0
2015-Feb-24 17:26N 60°04' E 027°03'0 0.0
2015-Feb-24 14:32N 60°04' E 027°03'0 0.0
2015-Feb-24 13:32N 60°04' E 027°03'0 0.0
2015-Feb-24 12:08N 60°04' E 027°03'0 0.0
2015-Feb-24 11:26N 60°04' E 027°03'0 0.0
2015-Feb-24 10:20N 60°04' E 027°03'0 0.0
2015-Feb-24 09:14N 60°04' E 027°03'0 0.0
2015-Feb-24 08:17N 60°04' E 027°03'0 0.0
2015-Feb-24 07:32N 60°04' E 027°03'0 0.0
2015-Feb-24 06:26N 60°04' E 027°03'0 0.0
2015-Feb-24 05:20N 60°04' E 027°03'0 0.0
2015-Feb-24 04:23N 60°04' E 027°03'0 0.0
2015-Feb-24 03:32N 60°04' E 027°03'0 0.0
2015-Feb-24 02:26N 60°04' E 027°03'0 0.0
2015-Feb-24 01:05N 60°04' E 027°03'0 0.1
2015-Feb-24 00:26N 60°04' E 027°03'0 0.0
2015-Feb-23 23:14N 60°04' E 027°03'0 0.0
2015-Feb-23 22:26N 60°04' E 027°03'0 0.0
2015-Feb-23 21:32N 60°04' E 027°03'  

Dump ship's entire track history